createdAt,value
2018-10-05T00:02:15.356Z,98.35
2018-10-05T00:05:37.823Z,98.09
2018-10-05T00:09:00.199Z,100.00
2018-10-05T00:12:22.663Z,100.00
2018-10-05T00:15:45.294Z,100.00
2018-10-05T00:19:07.822Z,99.03
2018-10-05T00:22:30.327Z,98.79
2018-10-05T00:29:12.849Z,99.70
2018-10-05T00:32:35.208Z,97.92
2018-10-05T00:35:57.603Z,96.52
2018-10-05T00:39:20.044Z,99.13
2018-10-05T00:42:42.353Z,96.34
2018-10-05T00:46:06.144Z,96.63
2018-10-05T00:49:29.052Z,94.94
2018-10-05T00:52:51.605Z,94.31
2018-10-05T00:56:14.158Z,98.50
2018-10-05T00:59:36.645Z,99.93
2018-10-05T01:02:59.201Z,100.00
2018-10-05T01:06:21.813Z,100.00
2018-10-05T01:09:44.448Z,100.00
2018-10-05T01:13:07.413Z,100.00
2018-10-05T01:16:30.011Z,100.00
2018-10-05T01:19:52.694Z,100.00
2018-10-05T01:23:15.258Z,100.00
2018-10-05T01:26:37.820Z,100.00
2018-10-05T01:30:00.236Z,100.00
2018-10-05T01:33:22.708Z,100.00
2018-10-05T01:36:45.260Z,100.00
2018-10-05T01:40:07.875Z,100.00
2018-10-05T01:43:30.940Z,100.00
2018-10-05T01:46:53.488Z,100.00
2018-10-05T01:50:16.119Z,100.00
2018-10-05T01:53:38.810Z,100.00
2018-10-05T01:57:01.363Z,100.00
2018-10-05T02:00:23.859Z,100.00
2018-10-05T02:03:46.804Z,99.51
2018-10-05T02:07:09.365Z,99.55
2018-10-05T02:10:31.777Z,100.00
2018-10-05T02:13:54.330Z,100.00
2018-10-05T02:17:16.900Z,100.00
2018-10-05T02:20:39.350Z,100.00
2018-10-05T02:24:01.862Z,99.87
2018-10-05T02:27:24.436Z,98.40
2018-10-05T02:30:47.045Z,98.91
2018-10-05T02:34:09.625Z,98.37
2018-10-05T02:37:32.119Z,98.82
2018-10-05T02:40:54.527Z,99.67
2018-10-05T02:44:17.251Z,99.32
2018-10-05T02:47:40.149Z,98.11
2018-10-05T02:51:02.754Z,98.66
2018-10-05T02:54:25.327Z,98.33
2018-10-05T02:57:47.896Z,96.68
2018-10-05T03:01:21.894Z,96.94
2018-10-05T03:04:44.496Z,98.00
2018-10-05T03:08:07.141Z,97.66
2018-10-05T03:11:29.590Z,98.43
2018-10-05T03:14:52.317Z,99.45
2018-10-05T03:18:14.945Z,98.47
2018-10-05T03:21:37.691Z,97.67
2018-10-05T03:25:00.354Z,99.74
2018-10-05T03:28:22.891Z,100.00
2018-10-05T03:31:45.298Z,99.65
2018-10-05T03:35:07.800Z,98.85
2018-10-05T03:38:30.362Z,100.00
2018-10-05T03:41:52.853Z,100.00
2018-10-05T03:45:15.339Z,99.23
2018-10-05T03:48:38.348Z,100.00
2018-10-05T03:52:00.871Z,98.66
2018-10-05T03:55:23.544Z,99.59
2018-10-05T03:58:46.172Z,95.03
2018-10-05T04:02:08.720Z,96.63
2018-10-05T04:05:31.483Z,100.00
2018-10-05T04:08:53.959Z,100.00
2018-10-05T04:12:16.399Z,100.00
2018-10-05T04:15:38.837Z,100.00
2018-10-05T04:19:01.352Z,100.00
2018-10-05T04:22:28.836Z,100.00
2018-10-05T04:25:51.237Z,100.00
2018-10-05T04:29:13.768Z,100.00
2018-10-05T04:32:36.213Z,100.00
2018-10-05T04:35:58.647Z,99.48
2018-10-05T04:39:21.080Z,100.00
2018-10-05T04:42:43.676Z,100.00
2018-10-05T04:46:06.228Z,100.00
2018-10-05T04:49:29.359Z,98.40
2018-10-05T04:52:51.939Z,98.64
2018-10-05T04:56:14.410Z,99.69
2018-10-05T04:59:36.896Z,100.00
2018-10-05T05:02:59.415Z,99.85
2018-10-05T05:06:22.058Z,95.78
2018-10-05T05:09:44.707Z,93.43
2018-10-05T05:13:07.230Z,94.38
2018-10-05T05:16:29.837Z,98.65
2018-10-05T05:19:52.346Z,100.00
2018-10-05T05:23:14.824Z,100.00
2018-10-05T05:26:37.369Z,98.56
2018-10-05T05:29:59.844Z,98.64
2018-10-05T05:33:23.547Z,100.00
2018-10-05T05:36:46.138Z,100.00
2018-10-05T05:40:08.838Z,100.00
2018-10-05T05:43:31.676Z,100.00
2018-10-05T05:46:54.330Z,100.00
2018-10-05T05:50:16.915Z,100.00
2018-10-05T05:53:39.311Z,100.00
2018-10-05T05:57:01.944Z,100.00
2018-10-05T06:00:24.546Z,100.00
2018-10-05T06:03:47.072Z,100.00
2018-10-05T06:07:09.771Z,100.00
2018-10-05T06:10:32.309Z,100.00
2018-10-05T06:13:54.934Z,100.00
2018-10-05T06:17:17.522Z,100.00
2018-10-05T06:20:39.995Z,100.00
2018-10-05T06:24:02.535Z,100.00
2018-10-05T06:27:24.977Z,100.00
2018-10-05T06:30:47.595Z,100.00
2018-10-05T06:34:11.654Z,100.00
2018-10-05T06:37:34.150Z,100.00
2018-10-05T06:40:56.829Z,100.00
2018-10-05T06:44:19.295Z,100.00
2018-10-05T06:47:44.185Z,100.00
2018-10-05T06:51:07.682Z,100.00
2018-10-05T06:54:30.343Z,100.00
2018-10-05T06:57:53.471Z,100.00
2018-10-05T07:01:16.126Z,100.00
2018-10-05T07:04:39.995Z,100.00
2018-10-05T07:08:02.906Z,100.00
2018-10-05T07:11:26.481Z,100.00
2018-10-05T07:14:48.978Z,100.00
2018-10-05T07:18:11.779Z,100.00
2018-10-05T07:21:34.380Z,99.36
2018-10-05T07:24:56.872Z,100.00
2018-10-05T07:29:22.688Z,97.97
2018-10-05T07:32:45.400Z,95.70
2018-10-05T07:36:09.622Z,94.56
2018-10-05T07:39:33.023Z,95.66
2018-10-05T07:42:56.118Z,92.00
2018-10-05T07:46:18.779Z,91.23
2018-10-05T07:49:43.005Z,97.62
2018-10-05T07:53:06.026Z,98.07
2018-10-05T07:56:28.869Z,96.88
2018-10-05T07:59:51.655Z,97.62
2018-10-05T08:03:14.588Z,100.00
2018-10-05T08:06:37.466Z,98.39
2018-10-05T08:10:00.085Z,96.87
2018-10-05T08:13:22.826Z,96.05
2018-10-05T08:16:45.363Z,94.53
2018-10-05T08:20:07.886Z,95.88
2018-10-05T08:23:30.429Z,93.63
2018-10-05T08:26:52.985Z,94.87
2018-10-05T08:30:15.598Z,95.76
2018-10-05T08:33:38.665Z,99.32
2018-10-05T08:37:01.251Z,100.00
2018-10-05T08:40:24.682Z,98.87
2018-10-05T08:43:47.435Z,99.45
2018-10-05T08:47:10.448Z,96.78
2018-10-05T08:50:33.050Z,96.61
2018-10-05T08:53:57.178Z,100.00
2018-10-05T08:57:21.060Z,100.00
2018-10-05T09:00:44.022Z,100.00
2018-10-05T09:04:07.157Z,100.00
2018-10-05T09:07:32.820Z,100.00
2018-10-05T09:10:57.463Z,100.00
2018-10-05T09:14:22.300Z,100.00
2018-10-05T09:17:46.147Z,100.00
2018-10-05T09:21:17.459Z,100.00
2018-10-05T09:24:40.353Z,100.00
2018-10-05T09:28:03.063Z,100.00
2018-10-05T09:31:25.929Z,100.00
2018-10-05T09:34:48.622Z,100.00
2018-10-05T09:38:11.263Z,97.64
2018-10-05T09:41:35.384Z,98.49
2018-10-05T09:44:58.142Z,95.40
2018-10-05T09:48:20.758Z,91.49
2018-10-05T09:51:43.265Z,90.55
2018-10-05T09:55:05.851Z,86.99
2018-10-05T09:58:28.443Z,87.36
2018-10-05T10:02:55.441Z,89.64
2018-10-05T10:06:18.106Z,87.67
2018-10-05T10:09:40.612Z,86.86
2018-10-05T10:13:03.053Z,83.80
2018-10-05T10:16:25.544Z,85.14
2018-10-05T10:19:48.109Z,83.40
2018-10-05T10:23:10.557Z,82.88
2018-10-05T10:26:33.204Z,81.93
2018-10-05T10:29:56.081Z,81.96
2018-10-05T10:33:19.026Z,82.29
2018-10-05T10:36:41.859Z,81.47
2018-10-05T10:40:05.130Z,79.71
2018-10-05T10:43:27.577Z,78.28
2018-10-05T10:46:50.622Z,76.72
2018-10-05T10:50:13.183Z,75.61
2018-10-05T10:53:35.742Z,72.31
2018-10-05T10:56:59.052Z,77.09
2018-10-05T11:00:21.511Z,75.71
2018-10-05T11:03:44.094Z,73.88
2018-10-05T11:07:06.717Z,73.67
2018-10-05T11:10:30.493Z,73.24
2018-10-05T11:13:53.252Z,71.61
2018-10-05T11:17:15.688Z,71.42
2018-10-05T11:20:38.105Z,66.26
2018-10-05T11:24:00.730Z,69.16
2018-10-05T11:27:23.325Z,70.18
2018-10-05T11:30:47.116Z,67.30
2018-10-05T11:34:09.697Z,64.95
2018-10-05T11:37:32.156Z,63.57
2018-10-05T11:40:54.788Z,62.85
2018-10-05T11:44:17.161Z,66.05
2018-10-05T11:47:39.736Z,62.84
2018-10-05T11:51:02.265Z,60.03
2018-10-05T11:54:25.359Z,60.05
2018-10-05T11:57:49.604Z,59.31
2018-10-05T12:01:12.454Z,60.36
2018-10-05T12:04:34.863Z,60.55
2018-10-05T12:07:57.368Z,60.05
2018-10-05T12:11:20.251Z,58.36
2018-10-05T12:14:42.664Z,57.70
2018-10-05T12:18:05.014Z,57.71
2018-10-05T12:21:28.667Z,58.91
2018-10-05T12:24:51.275Z,58.14
2018-10-05T12:28:13.882Z,56.69
2018-10-05T12:33:01.034Z,56.89
2018-10-05T12:36:23.622Z,53.58
2018-10-05T12:39:46.207Z,55.35
2018-10-05T12:43:08.705Z,56.49
2018-10-05T12:46:31.513Z,55.98
2018-10-05T12:49:54.289Z,56.68
2018-10-05T12:53:16.834Z,53.12
2018-10-05T12:56:40.375Z,52.41
2018-10-05T13:00:03.154Z,51.16
2018-10-05T13:03:25.714Z,53.14
2018-10-05T13:06:48.160Z,51.27
2018-10-05T13:10:10.773Z,52.87
2018-10-05T13:17:09.050Z,50.04
2018-10-05T13:20:32.150Z,50.91
2018-10-05T13:23:55.032Z,52.41
2018-10-05T13:27:17.649Z,52.32
2018-10-05T13:30:40.245Z,51.78
2018-10-05T13:34:03.269Z,52.61
2018-10-05T13:37:25.899Z,52.12
2018-10-05T13:40:48.449Z,50.11
2018-10-05T13:44:10.878Z,52.26
2018-10-05T13:47:33.254Z,52.51
2018-10-05T13:50:55.823Z,52.00
2018-10-05T13:54:18.523Z,51.69
2018-10-05T13:57:40.967Z,53.48
2018-10-05T14:01:03.564Z,52.77
2018-10-05T14:04:26.369Z,53.56
2018-10-05T14:07:50.886Z,53.64
2018-10-05T14:11:14.743Z,52.50
2018-10-05T14:14:39.240Z,52.36
2018-10-05T14:18:02.713Z,51.40
2018-10-05T14:21:26.157Z,53.20
2018-10-05T14:24:48.687Z,53.75
2018-10-05T14:28:11.159Z,55.02
2018-10-05T14:31:33.916Z,54.84
2018-10-05T14:34:58.653Z,54.24
2018-10-05T14:38:23.139Z,54.66
2018-10-05T14:41:45.807Z,53.81
2018-10-05T14:45:08.323Z,54.22
2018-10-05T14:48:30.806Z,54.19
2018-10-05T14:51:53.438Z,54.37
2018-10-05T14:55:16.070Z,53.57
2018-10-05T14:58:38.654Z,53.06
2018-10-05T15:02:01.348Z,54.42
2018-10-05T15:05:25.055Z,54.59
2018-10-05T15:08:47.598Z,54.09
2018-10-05T15:12:10.250Z,54.80
2018-10-05T15:15:32.951Z,53.75
2018-10-05T15:18:55.541Z,54.75
2018-10-05T15:22:18.755Z,54.05
2018-10-05T15:25:41.580Z,53.80
2018-10-05T15:29:04.219Z,54.58
2018-10-05T15:32:26.656Z,53.22
2018-10-05T15:35:50.222Z,53.74
2018-10-05T15:39:12.980Z,53.69
2018-10-05T15:42:35.599Z,54.03
2018-10-05T15:46:07.825Z,53.26
2018-10-05T15:49:31.368Z,54.06
2018-10-05T15:52:54.021Z,54.48
2018-10-05T15:56:16.909Z,54.50
2018-10-05T15:59:39.665Z,54.65
2018-10-05T16:03:02.232Z,54.67
2018-10-05T16:06:25.274Z,53.91
2018-10-05T16:09:48.102Z,54.88
2018-10-05T16:13:10.718Z,55.10
2018-10-05T16:16:33.723Z,55.16
2018-10-05T16:19:56.553Z,56.17
2018-10-05T16:23:19.157Z,57.46
2018-10-05T16:26:41.777Z,58.41
2018-10-05T16:30:04.926Z,58.66
2018-10-05T16:33:27.646Z,58.48
2018-10-05T16:36:50.133Z,59.35
2018-10-05T16:40:13.840Z,60.10
2018-10-05T16:43:36.326Z,64.58
2018-10-05T16:46:58.834Z,65.15
2018-10-05T16:50:21.382Z,67.42
2018-10-05T16:53:44.141Z,69.17
2018-10-05T16:57:06.704Z,69.38
2018-10-05T17:00:29.991Z,71.93
2018-10-05T17:03:52.957Z,74.79
2018-10-05T17:07:15.479Z,75.88
2018-10-05T17:10:38.157Z,77.09
2018-10-05T17:14:01.190Z,77.36
2018-10-05T17:17:23.726Z,77.50
2018-10-05T17:20:46.416Z,78.77
2018-10-05T17:24:08.964Z,79.87
2018-10-05T17:27:31.440Z,79.02
2018-10-05T17:30:53.879Z,79.84
2018-10-05T17:34:16.430Z,81.29
2018-10-05T17:37:39.018Z,81.32
2018-10-05T17:41:02.565Z,81.66
2018-10-05T17:44:25.518Z,81.51
2018-10-05T17:47:48.134Z,82.38
2018-10-05T17:51:10.764Z,82.59
2018-10-05T17:54:33.274Z,84.27
2018-10-05T17:57:56.274Z,85.51
2018-10-05T18:01:19.070Z,85.03
2018-10-05T18:04:41.710Z,85.72
2018-10-05T18:08:04.316Z,85.46
2018-10-05T18:11:26.825Z,86.34
2018-10-05T18:14:49.478Z,87.19
2018-10-05T18:18:11.911Z,87.06
2018-10-05T18:21:34.616Z,87.17
2018-10-05T18:24:58.245Z,87.79
2018-10-05T18:28:20.975Z,87.51
2018-10-05T18:31:43.745Z,86.10
2018-10-05T18:35:06.395Z,86.21
2018-10-05T18:38:28.923Z,85.32
2018-10-05T18:41:51.457Z,86.51
2018-10-05T18:45:14.017Z,86.80
2018-10-05T18:48:36.556Z,84.44
2018-10-05T18:51:59.123Z,85.61
2018-10-05T18:55:21.840Z,86.60
2018-10-05T18:58:44.519Z,86.38
2018-10-05T19:02:07.347Z,86.24
2018-10-05T19:05:30.189Z,86.88
2018-10-05T19:08:52.826Z,90.83
2018-10-05T19:12:15.336Z,89.21
2018-10-05T19:15:38.301Z,88.81
2018-10-05T19:19:00.893Z,89.30
2018-10-05T19:22:35.960Z,89.07
2018-10-05T19:29:53.880Z,88.66
2018-10-05T19:33:17.088Z,89.36
2018-10-05T19:36:41.152Z,88.58
2018-10-05T19:40:04.898Z,88.77
2018-10-05T19:43:28.484Z,89.83
2018-10-05T19:46:55.839Z,91.30
2018-10-05T19:50:18.617Z,89.68
2018-10-05T19:53:41.655Z,90.13
2018-10-05T19:57:04.877Z,92.77
2018-10-05T20:00:27.509Z,94.96
2018-10-05T20:03:50.165Z,97.37
2018-10-05T20:07:12.854Z,95.64
2018-10-05T20:10:35.675Z,93.03
2018-10-05T20:13:58.308Z,93.95
2018-10-05T20:17:20.830Z,92.18
2018-10-05T20:20:43.314Z,93.07
2018-10-05T20:24:06.461Z,94.51
2018-10-05T20:27:29.036Z,94.26
2018-10-05T20:30:53.339Z,95.37
2018-10-05T20:34:16.173Z,95.88
2018-10-05T20:37:39.116Z,95.33
2018-10-05T20:41:01.675Z,95.19
2018-10-05T20:44:24.394Z,96.05
2018-10-05T20:47:46.966Z,96.07
2018-10-05T20:51:11.883Z,97.41
2018-10-05T20:54:34.453Z,96.87
2018-10-05T20:57:56.945Z,95.73
2018-10-05T21:01:19.444Z,95.36
2018-10-05T21:04:41.996Z,95.10
2018-10-05T21:08:04.813Z,97.17
2018-10-05T21:11:27.326Z,96.77
2018-10-05T21:14:49.819Z,97.03
2018-10-05T21:18:12.382Z,98.15
2018-10-05T21:21:34.946Z,97.43
2018-10-05T21:24:57.619Z,97.90
2018-10-05T21:28:20.295Z,98.62
2018-10-05T21:31:42.882Z,97.01
2018-10-05T21:35:05.980Z,98.14
2018-10-05T21:38:28.483Z,97.55
2018-10-05T21:41:51.158Z,96.67
2018-10-05T21:45:13.860Z,98.21
2018-10-05T21:48:36.359Z,98.17
2018-10-05T21:51:58.897Z,97.99
2018-10-05T21:55:21.552Z,98.55
2018-10-05T21:58:44.213Z,98.55
2018-10-05T22:02:07.835Z,100.00
2018-10-05T22:05:30.753Z,98.11
2018-10-05T22:10:18.067Z,99.33
2018-10-05T22:13:40.786Z,100.00
2018-10-05T22:17:04.436Z,100.00
2018-10-05T22:20:27.179Z,100.00
2018-10-05T22:23:49.915Z,100.00
2018-10-05T22:27:12.463Z,100.00
2018-10-05T22:30:35.884Z,99.74
2018-10-05T22:33:59.915Z,99.41
2018-10-05T22:37:23.482Z,97.54
2018-10-05T22:40:45.961Z,95.93
2018-10-05T22:44:08.887Z,95.44
2018-10-05T22:47:32.565Z,94.20
2018-10-05T22:50:55.154Z,97.37
2018-10-05T22:54:17.745Z,93.85
2018-10-05T22:57:42.289Z,94.87
2018-10-05T23:01:04.949Z,96.35
2018-10-05T23:04:29.822Z,96.49
2018-10-05T23:07:52.409Z,96.91
2018-10-05T23:11:16.278Z,97.18
2018-10-05T23:14:39.598Z,98.69
2018-10-05T23:18:02.319Z,99.27
2018-10-05T23:21:25.322Z,99.58
2018-10-05T23:24:51.927Z,99.84
2018-10-05T23:28:15.539Z,98.66
2018-10-05T23:31:38.101Z,98.13
2018-10-05T23:35:00.553Z,99.02
2018-10-05T23:38:23.063Z,100.00
2018-10-05T23:41:45.655Z,99.26
2018-10-05T23:45:08.243Z,98.68
2018-10-05T23:48:32.385Z,97.87
2018-10-05T23:51:55.115Z,97.22
2018-10-05T23:55:18.135Z,97.22
2018-10-05T23:58:40.934Z,97.75
